createdAt,value
2023-04-12T00:01:47.838Z,8.27
2023-04-12T00:04:18.172Z,11.40
2023-04-12T00:06:48.423Z,9.27
2023-04-12T00:09:18.211Z,6.63
2023-04-12T00:11:48.176Z,5.73
2023-04-12T00:14:18.057Z,10.48
2023-04-12T00:16:47.855Z,11.80
2023-04-12T00:19:18.128Z,6.58
2023-04-12T00:21:47.924Z,4.57
2023-04-12T00:24:18.298Z,7.40
2023-04-12T00:26:48.141Z,13.63
2023-04-12T00:29:17.974Z,7.07
2023-04-12T00:31:48.632Z,11.00
2023-04-12T00:34:18.249Z,8.10
2023-04-12T00:36:49.033Z,6.90
2023-04-12T00:39:18.885Z,9.93
2023-04-12T00:41:48.849Z,9.73
2023-04-12T00:44:18.817Z,8.18
2023-04-12T00:46:48.787Z,7.47
2023-04-12T00:49:19.172Z,11.20
2023-04-12T00:51:48.960Z,12.37
2023-04-12T00:54:20.271Z,5.20
2023-04-12T00:56:50.599Z,8.17
2023-04-12T00:59:20.462Z,7.50
2023-04-12T01:01:50.324Z,9.77
2023-04-12T01:04:22.222Z,5.00
2023-04-12T01:07:07.238Z,8.30
2023-04-12T01:10:07.811Z,7.53
2023-04-12T01:12:46.964Z,3.70
2023-04-12T01:15:18.615Z,8.03
2023-04-12T01:18:00.521Z,4.27
2023-04-12T01:20:37.375Z,7.60
2023-04-12T01:23:31.334Z,3.87
2023-04-12T01:26:20.637Z,8.10
2023-04-12T01:28:53.645Z,9.23
2023-04-12T01:31:26.032Z,7.83
2023-04-12T01:33:58.008Z,6.70
2023-04-12T01:36:29.197Z,7.07
2023-04-12T01:38:59.924Z,6.40
2023-04-12T01:41:29.804Z,9.83
2023-04-12T01:43:59.682Z,8.50
2023-04-12T01:46:29.730Z,8.23
2023-04-12T01:49:00.260Z,10.33
2023-04-12T01:51:54.191Z,8.23
2023-04-12T01:54:31.188Z,8.10
2023-04-12T01:57:03.809Z,9.17
2023-04-12T01:59:42.170Z,4.80
2023-04-12T02:02:14.017Z,10.23
2023-04-12T02:04:45.632Z,10.65
2023-04-12T02:07:18.857Z,10.23
2023-04-12T02:09:48.686Z,10.53
2023-04-12T02:12:20.201Z,9.83
2023-04-12T02:14:51.718Z,6.87
2023-04-12T02:17:21.814Z,6.57
2023-04-12T02:19:52.026Z,12.30
2023-04-12T02:22:21.789Z,7.40
2023-04-12T02:24:52.061Z,4.67
2023-04-12T02:27:21.846Z,9.70
2023-04-12T02:29:51.749Z,5.53
2023-04-12T02:32:21.654Z,9.00
2023-04-12T02:34:51.700Z,8.23
2023-04-12T02:37:22.396Z,4.23
2023-04-12T02:39:54.072Z,5.70
2023-04-12T02:42:24.489Z,8.30
2023-04-12T02:44:54.339Z,5.73
2023-04-12T02:47:25.970Z,6.87
2023-04-12T02:49:56.320Z,7.47
2023-04-12T02:52:26.563Z,7.87
2023-04-12T02:55:00.983Z,12.63
2023-04-12T02:57:31.492Z,8.18
2023-04-12T03:00:01.695Z,8.07
2023-04-12T03:02:36.229Z,4.60
2023-04-12T03:05:08.780Z,5.76
2023-04-12T03:07:40.647Z,6.40
2023-04-12T03:10:13.145Z,10.60
2023-04-12T03:12:44.695Z,6.90
2023-04-12T03:15:17.858Z,4.55
2023-04-12T03:17:54.994Z,4.87
2023-04-12T03:20:27.949Z,7.10
2023-04-12T03:23:05.261Z,10.13
2023-04-12T03:25:37.372Z,5.03
2023-04-12T03:28:11.900Z,8.16
2023-04-12T03:30:43.530Z,8.27
2023-04-12T03:33:13.815Z,8.08
2023-04-12T03:35:45.152Z,5.37
2023-04-12T03:38:15.810Z,7.53
2023-04-12T03:40:45.828Z,5.23
2023-04-12T03:43:16.150Z,5.90
2023-04-12T03:45:46.009Z,3.30
2023-04-12T03:48:16.738Z,5.12
2023-04-12T03:50:48.359Z,4.47
2023-04-12T03:53:19.871Z,3.93
2023-04-12T03:55:50.036Z,5.67
2023-04-12T03:58:20.739Z,4.30
2023-04-12T04:00:50.795Z,3.67
2023-04-12T04:03:22.763Z,3.53
2023-04-12T04:05:55.161Z,9.10
2023-04-12T04:08:24.883Z,5.85
2023-04-12T04:10:57.048Z,4.17
2023-04-12T04:13:28.697Z,11.07
2023-04-12T04:16:09.498Z,6.83
2023-04-12T04:18:40.032Z,11.60
2023-04-12T04:21:11.119Z,8.30
2023-04-12T04:23:43.594Z,5.33
2023-04-12T04:26:13.748Z,6.17
2023-04-12T04:28:45.886Z,6.87
2023-04-12T04:31:17.740Z,4.70
2023-04-12T04:33:49.463Z,7.43
2023-04-12T04:36:19.833Z,8.43
2023-04-12T04:38:51.365Z,4.13
2023-04-12T04:41:22.961Z,6.90
2023-04-12T04:43:55.314Z,5.10
2023-04-12T04:46:26.117Z,6.10
2023-04-12T04:48:55.825Z,4.45
2023-04-12T04:51:26.111Z,6.17
2023-04-12T04:53:57.371Z,6.33
2023-04-12T04:56:27.209Z,11.38
2023-04-12T04:58:57.738Z,6.58
2023-04-12T05:01:28.566Z,4.10
2023-04-12T05:03:59.956Z,9.57
2023-04-12T05:06:30.882Z,4.83
2023-04-12T05:09:01.737Z,10.67
2023-04-12T05:11:32.637Z,7.37
2023-04-12T05:14:02.627Z,8.00
2023-04-12T05:16:32.483Z,10.10
2023-04-12T05:19:02.602Z,4.85
2023-04-12T05:21:33.830Z,10.57
2023-04-12T05:24:03.819Z,5.67
2023-04-12T05:26:35.114Z,4.45
2023-04-12T05:29:06.513Z,6.00
2023-04-12T05:31:36.387Z,7.80
2023-04-12T05:34:10.443Z,7.38
2023-04-12T05:36:41.973Z,6.87
2023-04-12T05:39:11.810Z,4.50
2023-04-12T05:41:41.636Z,3.77
2023-04-12T05:44:12.855Z,6.04
2023-04-12T05:46:42.855Z,6.80
2023-04-12T05:49:12.795Z,4.60
2023-04-12T05:51:42.578Z,4.80
2023-04-12T05:54:13.773Z,3.90
2023-04-12T05:56:43.566Z,7.43
2023-04-12T05:59:13.890Z,7.17
2023-04-12T06:01:44.566Z,4.87
2023-04-12T06:04:16.690Z,10.70
2023-04-12T06:06:47.431Z,4.63
2023-04-12T06:09:17.203Z,5.10
2023-04-12T06:11:47.092Z,2.90
2023-04-12T06:14:16.961Z,3.90
2023-04-12T06:16:47.695Z,4.23
2023-04-12T06:19:18.073Z,4.70
2023-04-12T06:21:48.284Z,8.93
2023-04-12T06:24:18.151Z,3.23
2023-04-12T06:26:48.496Z,4.70
2023-04-12T06:29:18.389Z,6.07
2023-04-12T06:31:48.745Z,2.80
2023-04-12T06:34:18.238Z,5.70
2023-04-12T06:36:48.220Z,6.17
2023-04-12T06:39:18.072Z,5.87
2023-04-12T06:41:48.182Z,6.87
2023-04-12T06:44:19.633Z,4.37
2023-04-12T06:46:49.533Z,9.03
2023-04-12T06:49:19.612Z,5.40
2023-04-12T06:51:49.504Z,6.23
2023-04-12T06:54:19.285Z,4.42
2023-04-12T06:56:49.398Z,4.55
2023-04-12T06:59:19.873Z,5.35
2023-04-12T07:01:49.712Z,5.60
2023-04-12T07:04:19.764Z,11.90
2023-04-12T07:06:50.002Z,6.30
2023-04-12T07:09:20.090Z,9.90
2023-04-12T07:11:49.848Z,6.70
2023-04-12T07:14:19.891Z,5.92
2023-04-12T07:16:49.803Z,4.70
2023-04-12T07:19:20.084Z,4.67
2023-04-12T07:21:50.407Z,4.95
2023-04-12T07:24:20.359Z,7.17
2023-04-12T07:26:50.862Z,6.83
2023-04-12T07:29:20.828Z,7.03
2023-04-12T07:31:50.847Z,5.23
2023-04-12T07:34:21.393Z,5.87
2023-04-12T07:36:51.397Z,3.83
2023-04-12T07:39:21.410Z,5.17
2023-04-12T07:41:52.185Z,8.50
2023-04-12T07:44:22.162Z,8.70
2023-04-12T07:46:52.191Z,6.57
2023-04-12T07:49:22.420Z,16.65
2023-04-12T07:51:52.626Z,7.03
2023-04-12T07:54:23.674Z,5.33
2023-04-12T07:57:01.775Z,7.10
2023-04-12T07:59:35.998Z,10.90
2023-04-12T08:02:06.493Z,11.33
2023-04-12T08:04:36.808Z,5.72
2023-04-12T08:07:06.701Z,14.23
2023-04-12T08:09:36.946Z,11.08
2023-04-12T08:12:07.228Z,9.03
2023-04-12T08:14:39.115Z,10.25
2023-04-12T08:17:09.208Z,11.67
2023-04-12T08:19:39.483Z,7.53
2023-04-12T08:22:10.364Z,13.80
2023-04-12T08:24:41.577Z,8.25
2023-04-12T08:27:13.515Z,9.93
2023-04-12T08:29:43.759Z,8.48
2023-04-12T08:32:13.751Z,9.60
2023-04-12T08:34:46.064Z,9.05
2023-04-12T08:37:16.907Z,13.43
2023-04-12T08:39:47.118Z,9.10
2023-04-12T08:42:17.307Z,10.73
2023-04-12T08:44:48.136Z,10.38
2023-04-12T08:47:18.667Z,9.33
2023-04-12T08:49:48.648Z,10.50
2023-04-12T08:52:18.745Z,10.55
2023-04-12T08:54:48.712Z,9.60
2023-04-12T08:57:19.994Z,10.23
2023-04-12T08:59:53.124Z,10.25
2023-04-12T09:02:23.282Z,12.23
2023-04-12T09:04:54.075Z,11.10
2023-04-12T09:07:26.393Z,17.83
2023-04-12T09:09:56.532Z,13.33
2023-04-12T09:12:27.138Z,19.63
2023-04-12T09:15:14.029Z,12.87
2023-04-12T09:17:44.492Z,11.33
2023-04-12T09:20:19.759Z,14.80
2023-04-12T09:22:50.053Z,21.43
2023-04-12T09:25:20.093Z,13.72
2023-04-12T09:27:52.465Z,12.13
2023-04-12T09:30:22.444Z,15.73
2023-04-12T09:32:53.506Z,17.80
2023-04-12T09:35:35.785Z,12.83
2023-04-12T09:38:09.658Z,18.53
2023-04-12T09:40:40.066Z,12.23
2023-04-12T09:43:10.705Z,16.60
2023-04-12T09:45:40.726Z,18.05
2023-04-12T09:48:13.672Z,21.97
2023-04-12T09:50:44.543Z,18.50
2023-04-12T09:53:18.486Z,17.23
2023-04-12T09:55:49.271Z,22.20
2023-04-12T09:58:21.970Z,17.17
2023-04-12T10:00:52.347Z,23.97
2023-04-12T10:03:22.834Z,12.75
2023-04-12T10:05:52.798Z,21.17
2023-04-12T10:08:27.165Z,12.95
2023-04-12T10:10:57.446Z,12.40
2023-04-12T10:13:29.596Z,21.97
2023-04-12T10:16:01.243Z,18.43
2023-04-12T10:18:32.266Z,17.12
2023-04-12T10:21:02.730Z,17.03
2023-04-12T10:23:36.383Z,13.08
2023-04-12T10:26:06.932Z,15.43
2023-04-12T10:28:37.677Z,19.40
2023-04-12T10:31:13.671Z,14.15
2023-04-12T10:33:44.154Z,12.73
2023-04-12T10:36:15.047Z,12.70
2023-04-12T10:38:50.172Z,16.32
2023-04-12T10:41:22.048Z,18.10
2023-04-12T10:43:52.981Z,14.70
2023-04-12T10:46:48.684Z,14.70
2023-04-12T10:49:19.133Z,18.90
2023-04-12T10:52:13.102Z,22.00
2023-04-12T10:54:43.303Z,13.28
2023-04-12T10:57:33.715Z,15.75
2023-04-12T11:00:03.907Z,12.00
2023-04-12T11:02:35.899Z,19.30
2023-04-12T11:05:10.392Z,11.28
2023-04-12T11:08:01.885Z,15.08
2023-04-12T11:10:48.349Z,21.77
2023-04-12T11:13:21.401Z,15.40
2023-04-12T11:15:59.869Z,10.53
2023-04-12T11:18:30.624Z,13.45
2023-04-12T11:21:00.811Z,11.07
2023-04-12T11:23:32.711Z,16.45
2023-04-12T11:26:04.599Z,16.73
2023-04-12T11:28:35.647Z,18.37
2023-04-12T11:31:06.974Z,19.70
2023-04-12T11:33:38.221Z,18.87
2023-04-12T11:36:13.074Z,16.97
2023-04-12T11:38:43.885Z,20.07
2023-04-12T11:41:16.782Z,18.90
2023-04-12T11:43:48.489Z,21.87
2023-04-12T11:46:19.732Z,14.00
2023-04-12T11:48:49.842Z,19.43
2023-04-12T11:51:22.324Z,16.05
2023-04-12T11:53:57.258Z,16.90
2023-04-12T11:56:27.684Z,12.43
2023-04-12T11:58:57.582Z,15.97
2023-04-12T12:01:29.114Z,13.88
2023-04-12T12:04:03.039Z,18.50
2023-04-12T12:06:33.547Z,11.73
2023-04-12T12:09:03.918Z,12.33
2023-04-12T12:11:34.218Z,9.18
2023-04-12T12:14:04.531Z,9.07
2023-04-12T12:16:35.914Z,10.00
2023-04-12T12:19:06.059Z,14.67
2023-04-12T12:21:35.984Z,15.30
2023-04-12T12:24:06.028Z,7.03
2023-04-12T12:26:37.362Z,8.40
2023-04-12T12:29:08.828Z,7.77
2023-04-12T12:31:40.213Z,12.23
2023-04-12T12:34:13.088Z,16.27
2023-04-12T12:36:42.953Z,12.10
2023-04-12T12:39:15.293Z,15.43
2023-04-12T12:41:45.239Z,13.17
2023-04-12T12:44:17.031Z,15.65
2023-04-12T12:46:53.396Z,13.03
2023-04-12T12:49:19.521Z,11.93
2023-04-12T12:51:49.447Z,13.10
2023-04-12T12:54:38.644Z,10.77
2023-04-12T12:56:52.737Z,7.20
2023-04-12T12:59:24.680Z,10.00
2023-04-12T13:01:54.633Z,11.25
2023-04-12T13:04:24.765Z,16.33
2023-04-12T13:06:54.578Z,10.43
2023-04-12T13:09:24.532Z,12.77
2023-04-12T13:11:54.466Z,8.57
2023-04-12T13:14:24.313Z,10.63
2023-04-12T13:16:54.085Z,9.35
2023-04-12T13:19:24.066Z,12.27
2023-04-12T13:21:53.912Z,10.67
2023-04-12T13:24:23.828Z,10.37
2023-04-12T13:26:53.680Z,10.57
2023-04-12T13:29:23.501Z,12.43
2023-04-12T13:31:53.400Z,14.33
2023-04-12T13:34:23.644Z,11.65
2023-04-12T13:36:53.473Z,8.20
2023-04-12T13:39:23.417Z,6.40
2023-04-12T13:41:53.462Z,7.23
2023-04-12T13:44:23.286Z,10.00
2023-04-12T13:46:53.056Z,8.13
2023-04-12T13:49:22.895Z,11.83
2023-04-12T13:51:53.173Z,9.95
2023-04-12T13:54:23.298Z,12.13
2023-04-12T13:56:53.204Z,7.70
2023-04-12T13:59:23.056Z,6.17
2023-04-12T14:01:53.013Z,8.85
2023-04-12T14:04:23.371Z,7.30
2023-04-12T14:06:53.274Z,8.03
2023-04-12T14:09:30.581Z,8.20
2023-04-12T14:12:01.592Z,7.07
2023-04-12T14:14:31.368Z,10.47
2023-04-12T14:17:01.978Z,8.27
2023-04-12T14:19:32.572Z,9.10
2023-04-12T14:22:02.644Z,10.50
2023-04-12T14:24:32.500Z,7.33
2023-04-12T14:27:02.376Z,8.25
2023-04-12T14:29:32.283Z,10.23
2023-04-12T14:32:02.301Z,8.50
2023-04-12T14:34:32.136Z,9.23
2023-04-12T14:37:02.050Z,10.43
2023-04-12T14:39:31.962Z,5.63
2023-04-12T14:42:02.834Z,9.90
2023-04-12T14:44:32.938Z,4.42
2023-04-12T14:47:02.848Z,8.00
2023-04-12T14:49:33.557Z,6.03
2023-04-12T14:52:04.397Z,6.07
2023-04-12T14:54:34.608Z,5.13
2023-04-12T14:57:04.535Z,8.60
2023-04-12T14:59:34.561Z,6.97
2023-04-12T15:02:05.369Z,3.77
2023-04-12T15:04:35.566Z,7.03
2023-04-12T15:07:05.699Z,3.27
2023-04-12T15:09:35.721Z,2.63
2023-04-12T15:12:07.023Z,2.17
2023-04-12T15:14:36.976Z,5.37
2023-04-12T15:17:06.566Z,1.25
2023-04-12T15:19:36.653Z,1.43
2023-04-12T15:22:06.577Z,5.63
2023-04-12T15:24:36.425Z,3.73
2023-04-12T15:27:06.921Z,2.73
2023-04-12T15:29:36.738Z,1.93
2023-04-12T15:32:08.845Z,2.27
2023-04-12T15:34:39.008Z,3.22
2023-04-12T15:37:09.993Z,2.37
2023-04-12T15:39:41.522Z,3.90
2023-04-12T15:42:13.100Z,3.80
2023-04-12T15:44:45.110Z,3.23
2023-04-12T15:47:14.905Z,1.53
2023-04-12T15:49:44.743Z,3.73
2023-04-12T15:52:16.700Z,1.67
2023-04-12T15:54:46.825Z,3.20
2023-04-12T15:57:17.224Z,1.77
2023-04-12T15:59:47.775Z,1.77
2023-04-12T16:02:18.141Z,5.40
2023-04-12T16:04:48.642Z,2.47
2023-04-12T16:07:20.904Z,1.95
2023-04-12T16:09:51.005Z,2.70
2023-04-12T16:12:20.918Z,1.77
2023-04-12T16:14:51.880Z,3.20
2023-04-12T16:17:21.720Z,4.35
2023-04-12T16:19:51.505Z,2.07
2023-04-12T16:22:21.553Z,13.00
2023-04-12T16:24:52.307Z,3.23
2023-04-12T16:27:23.622Z,1.10
2023-04-12T16:29:53.674Z,3.60
2023-04-12T16:32:23.208Z,1.80
2023-04-12T16:34:53.470Z,3.43
2023-04-12T16:37:23.318Z,5.90
2023-04-12T16:39:53.181Z,6.53
2023-04-12T16:42:24.500Z,1.40
2023-04-12T16:44:54.488Z,2.57
2023-04-12T16:47:24.627Z,1.30
2023-04-12T16:49:54.822Z,3.20
2023-04-12T16:52:24.388Z,1.80
2023-04-12T16:54:54.232Z,1.50
2023-04-12T16:57:24.589Z,2.80
2023-04-12T16:59:55.892Z,1.70
2023-04-12T17:02:26.186Z,7.00
2023-04-12T17:04:56.217Z,3.43
2023-04-12T17:07:26.067Z,3.37
2023-04-12T17:09:56.216Z,4.60
2023-04-12T17:12:26.495Z,4.20
2023-04-12T17:14:56.359Z,2.97
2023-04-12T17:17:25.919Z,2.55
2023-04-12T17:19:55.946Z,3.53
2023-04-12T17:22:25.914Z,6.07
2023-04-12T17:24:56.034Z,4.43
2023-04-12T17:27:25.871Z,4.63
2023-04-12T17:29:55.847Z,4.67
2023-04-12T17:32:25.895Z,5.17
2023-04-12T17:34:55.838Z,10.27
2023-04-12T17:37:27.711Z,6.00
2023-04-12T17:39:57.608Z,4.77
2023-04-12T17:42:27.720Z,6.22
2023-04-12T17:44:57.800Z,3.27
2023-04-12T17:47:27.751Z,4.97
2023-04-12T17:49:57.698Z,3.83
2023-04-12T17:52:27.902Z,5.60
2023-04-12T17:54:57.788Z,5.00
2023-04-12T17:57:27.687Z,5.50
2023-04-12T17:59:58.231Z,3.93
2023-04-12T18:02:28.537Z,4.22
2023-04-12T18:04:58.603Z,5.67
2023-04-12T18:07:30.110Z,7.17
2023-04-12T18:10:02.347Z,7.12
2023-04-12T18:12:32.341Z,6.63
2023-04-12T18:15:03.897Z,6.80
2023-04-12T18:17:33.756Z,8.33
2023-04-12T18:20:05.335Z,4.93
2023-04-12T18:22:35.143Z,9.07
2023-04-12T18:25:08.175Z,8.13
2023-04-12T18:27:40.670Z,6.47
2023-04-12T18:30:11.949Z,11.04
2023-04-12T18:32:42.127Z,7.10
2023-04-12T18:35:12.345Z,11.90
2023-04-12T18:37:43.550Z,9.95
2023-04-12T18:40:15.929Z,8.58
2023-04-12T18:42:46.050Z,5.73
2023-04-12T18:45:15.951Z,8.53
2023-04-12T18:47:46.010Z,11.23
2023-04-12T18:50:17.067Z,8.83
2023-04-12T18:52:46.897Z,9.80
2023-04-12T18:55:16.895Z,8.58
2023-04-12T18:57:48.962Z,10.27
2023-04-12T19:00:19.596Z,11.93
2023-04-12T19:02:49.827Z,10.03
2023-04-12T19:05:21.492Z,12.73
2023-04-12T19:07:52.265Z,13.67
2023-04-12T19:10:23.523Z,14.55
2023-04-12T19:12:53.338Z,17.67
2023-04-12T19:15:23.378Z,21.67
2023-04-12T19:17:53.670Z,19.48
2023-04-12T19:20:23.380Z,22.37
2023-04-12T19:22:53.295Z,18.05
2023-04-12T19:25:25.063Z,14.73
2023-04-12T19:27:54.901Z,15.40
2023-04-12T19:30:24.790Z,15.50
2023-04-12T19:32:54.708Z,14.23
2023-04-12T19:35:25.157Z,13.27
2023-04-12T19:37:55.302Z,12.95
2023-04-12T19:40:24.985Z,17.10
2023-04-12T19:42:55.100Z,9.70
2023-04-12T19:45:26.263Z,9.70
2023-04-12T19:47:56.294Z,9.20
2023-04-12T19:50:25.956Z,11.15
2023-04-12T19:52:55.760Z,8.23
2023-04-12T19:55:25.930Z,7.10
2023-04-12T19:57:56.708Z,5.67
2023-04-12T20:00:27.217Z,6.93
2023-04-12T20:02:58.404Z,6.33
2023-04-12T20:05:28.444Z,7.40
2023-04-12T20:07:58.500Z,8.53
2023-04-12T20:10:28.472Z,10.45
2023-04-12T20:12:58.532Z,5.90
2023-04-12T20:15:28.497Z,4.93
2023-04-12T20:17:58.921Z,7.55
2023-04-12T20:20:28.763Z,4.55
2023-04-12T20:22:58.952Z,9.20
2023-04-12T20:25:28.898Z,6.53
2023-04-12T20:27:58.698Z,5.93
2023-04-12T20:30:28.696Z,7.28
2023-04-12T20:33:00.483Z,6.65
2023-04-12T20:35:30.689Z,4.72
2023-04-12T20:38:00.574Z,5.67
2023-04-12T20:40:30.464Z,3.58
2023-04-12T20:43:00.412Z,5.50
2023-04-12T20:45:30.219Z,6.57
2023-04-12T20:48:00.156Z,6.23
2023-04-12T20:50:30.436Z,3.98
2023-04-12T20:53:00.386Z,3.63
2023-04-12T20:55:32.130Z,4.33
2023-04-12T20:58:03.745Z,7.57
2023-04-12T21:00:34.384Z,4.17
2023-04-12T21:03:04.647Z,3.17
2023-04-12T21:05:34.605Z,4.53
2023-04-12T21:08:07.564Z,4.23
2023-04-12T21:10:37.361Z,5.30
2023-04-12T21:13:07.336Z,4.13
2023-04-12T21:15:37.193Z,1.90
2023-04-12T21:18:08.486Z,2.83
2023-04-12T21:20:38.614Z,2.00
2023-04-12T21:23:08.189Z,2.30
2023-04-12T21:25:38.074Z,5.90
2023-04-12T21:28:09.404Z,3.03
2023-04-12T21:30:41.303Z,4.50
2023-04-12T21:33:12.751Z,2.00
2023-04-12T21:35:43.020Z,2.83
2023-04-12T21:38:13.075Z,3.15
2023-04-12T21:40:42.882Z,4.20
2023-04-12T21:43:12.657Z,2.37
2023-04-12T21:45:42.560Z,1.43
2023-04-12T21:48:14.244Z,2.17
2023-04-12T21:50:44.315Z,1.10
2023-04-12T21:53:14.109Z,2.37
2023-04-12T21:55:43.987Z,0.87
2023-04-12T21:58:14.141Z,3.85
2023-04-12T22:00:44.814Z,1.22
2023-04-12T22:03:14.676Z,1.37
2023-04-12T22:05:48.628Z,3.60
2023-04-12T22:08:16.245Z,1.37
2023-04-12T22:10:46.430Z,1.87
2023-04-12T22:13:17.987Z,1.15
2023-04-12T22:15:48.066Z,1.75
2023-04-12T22:18:17.859Z,1.17
2023-04-12T22:20:48.224Z,1.40
2023-04-12T22:23:18.330Z,0.80
2023-04-12T22:25:49.404Z,1.32
2023-04-12T22:28:18.911Z,2.43
2023-04-12T22:30:48.785Z,4.63
2023-04-12T22:33:18.568Z,5.57
2023-04-12T22:35:48.513Z,2.17
2023-04-12T22:38:19.237Z,2.05
2023-04-12T22:40:49.031Z,2.10
2023-04-12T22:43:20.450Z,1.63
2023-04-12T22:45:51.985Z,2.90
2023-04-12T22:48:23.388Z,3.30
2023-04-12T22:50:54.462Z,4.60
2023-04-12T22:53:25.563Z,1.82
2023-04-12T22:55:56.240Z,4.60
2023-04-12T22:58:26.012Z,2.60
2023-04-12T23:00:56.770Z,2.20
2023-04-12T23:03:28.294Z,4.03
2023-04-12T23:05:58.193Z,2.17
2023-04-12T23:08:28.996Z,2.80
2023-04-12T23:11:00.461Z,10.17
2023-04-12T23:13:35.660Z,5.12
2023-04-12T23:16:08.618Z,2.63
2023-04-12T23:18:38.766Z,2.45
2023-04-12T23:21:11.866Z,3.80
2023-04-12T23:23:43.116Z,3.90
2023-04-12T23:26:13.241Z,4.97
2023-04-12T23:28:43.187Z,1.07
2023-04-12T23:31:13.233Z,3.33
2023-04-12T23:33:44.119Z,3.35
2023-04-12T23:36:14.102Z,2.37
2023-04-12T23:38:44.272Z,4.13
2023-04-12T23:41:14.185Z,3.27
2023-04-12T23:43:44.266Z,1.50
2023-04-12T23:46:14.059Z,1.80
2023-04-12T23:48:43.836Z,1.63
2023-04-12T23:51:13.652Z,5.07
2023-04-12T23:53:45.077Z,5.45
2023-04-12T23:56:14.906Z,3.20
2023-04-12T23:58:44.722Z,2.83
